Sturgeon Bay, WI (54235)

1:00 AM CDT on March 27, 2017 (GMT -0500)
Redwood | | Change Station

Elev 676 ft 44.83 °N, 87.39 °W | Updated 6 seconds ago

Fog
Fog
36.0 °F
Feels Like 36 °F
N
1.8
Wind Variable Wind from SSW
Gusts 2.5 mph

Today
High -- | Low -- °F
--% Chance of Precip.
Yesterday
High -- | Low -- °F
Precip. -- in
Pressure 29.95 in
Visibility 0.5 miles
Clouds Overcast 300 ft
Windchill 36 °F
Dew Point 36 °F
Humidity 99%
Rainfall 0.00 in
Snow Depth Not available.
6:39 AM 7:11 PM
Waning Crescent, 1% visible
METAR KSUE 270556Z AUTO 31005KT 1/2SM FG OVC003 01/01 A2988 RMK AO2 RAB13E29 SLP140 P0000 60001 T00110011 10017 20006 400390006 55001 FZRANO RVRNO
Pressure 29.95 in
Visibility 0.5 miles
Clouds Overcast 300 ft
Windchill 36 °F
Dew Point 36 °F
Humidity 99%
Rainfall 0.00 in
Snow Depth Not available.
6:39 AM 7:11 PM
Waning Crescent, 1% visible
METAR KSUE 270556Z AUTO 31005KT 1/2SM FG OVC003 01/01 A2988 RMK AO2 RAB13E29 SLP140 P0000 60001 T00110011 10017 20006 400390006 55001 FZRANO RVRNO

Get Severe Weather Alerts

Thanks for signing up!

Be on the lookout for a verification email in your inbox.

You'll start receiving the daily forecast at 8 AM.

×

10-Day Weather Forecast

Almanac

Astronomy

Mar. 27, 2017 Rise Set
Actual Time
Civil Twilight
Nautical Twilight
Astronomical Twilight
Moon
Length of Visible Light
Length of Day
Tomorrow will be .
, % of the Moon is Illuminated

Today's Extremes

State Highs State Lows

Community

WunderPhotos

Upload Photos

1,962,540 photos uploaded!

WunderBlog® & News

Nearby

Air Quality

  Air Quality AQ Index Pollutant
Not available.

Snow Depth

Station Depth Elevation

Earthquake Activity

City Distance Mag. Time & Date
Minimum magnitude displayed is 2.5.

Earthquake Activity

City Distance Mag. Time & Date
Minimum magnitude displayed is 2.5.

Coastal Water Temperatures

Place Temperature

Stations

Nearby Weather Stations

Station Location Temp. Windchill Dew Point Humidity Wind Precip. Elev Updated Type
                   

Watches & Warnings

There are currently no watches in effect.